Time;durP1;ratioP1;P1;durP2;ratioP2;P2;SDS_P1;SDS_P2;PMS_P1;PMS_P2;Temp;Humidity;BMP_temperature;BMP_pressure;BME280_temperature;BME280_humidity;BME280_pressure;Samples;Min_cycle;Max_cycle;Signal;HPM_P1;HPM_P2
2022/02/06 00:00:48;;;;;;;0.10;0.10;;;;;;;;;;4347204;33;20040;-91
2022/02/06 00:03:18;;;;;;;0.73;0.10;;;;;;;;;;4346076;33;20056;-91
2022/02/06 00:05:49;;;;;;;0.20;0.20;;;;;;;;;;4345581;33;20372;-91
2022/02/06 00:08:19;;;;;;;0.10;0.10;;;;;;;;;;4345807;33;20402;-91
2022/02/06 00:10:48;;;;;;;0.10;0.10;;;;;;;;;;4333674;33;20036;-91
2022/02/06 00:13:18;;;;;;;0.13;0.13;;;;;;;;;;4345504;33;20101;-90
2022/02/06 00:15:47;;;;;;;0.20;0.10;;;;;;;;;;4321633;33;20035;-90
2022/02/06 00:18:16;;;;;;;0.10;0.10;;;;;;;;;;4320955;33;20434;-89
2022/02/06 00:20:57;;;;;;;0.10;0.10;;;;;;;;;;4346432;33;20090;-90
2022/02/06 00:23:29;;;;;;;0.88;0.20;;;;;;;;;;4357654;33;20043;-90
2022/02/06 00:26:09;;;;;;;0.15;0.10;;;;;;;;;;4347162;33;20032;-90
2022/02/06 00:28:43;;;;;;;0.43;0.10;;;;;;;;;;4347480;33;20431;-90
2022/02/06 00:31:31;;;;;;;0.10;0.10;;;;;;;;;;4347236;33;20093;-89
2022/02/06 00:39:58;;;;;;;0.10;0.10;;;;;;;;;;4359637;32;20035;-91
2022/02/06 00:42:28;;;;;;;0.32;0.20;;;;;;;;;;4349381;32;20044;-90
2022/02/06 00:44:57;;;;;;;0.10;0.10;;;;;;;;;;4347609;33;20048;-90
2022/02/06 00:47:27;;;;;;;1.48;0.10;;;;;;;;;;4360640;33;20082;-90
2022/02/06 00:49:57;;;;;;;0.20;0.10;;;;;;;;;;4361185;32;20046;-91
2022/02/06 00:52:33;;;;;;;0.22;0.10;;;;;;;;;;4347365;33;20058;-91
2022/02/06 00:55:03;;;;;;;0.15;0.10;;;;;;;;;;4361146;33;20129;-91
2022/02/06 00:57:31;;;;;;;0.65;0.20;;;;;;;;;;4348712;33;20048;-90
2022/02/06 01:00:03;;;;;;;0.60;0.10;;;;;;;;;;4361242;33;20031;-90
2022/02/06 01:02:33;;;;;;;1.08;0.08;;;;;;;;;;4347605;33;20087;-90
2022/02/06 01:05:02;;;;;;;0.13;0.10;;;;;;;;;;4348630;33;20074;-90
2022/02/06 01:07:31;;;;;;;0.22;0.20;;;;;;;;;;4361803;33;20069;-91
2022/02/06 01:10:00;;;;;;;0.10;0.10;;;;;;;;;;4361983;33;20058;-90
2022/02/06 01:12:32;;;;;;;0.10;0.10;;;;;;;;;;4347603;33;20051;-90
2022/02/06 01:17:41;;;;;;;0.30;0.10;;;;;;;;;;4347071;33;20425;-90
2022/02/06 01:22:48;;;;;;;0.10;0.10;;;;;;;;;;4359234;33;20379;-90
2022/02/06 01:25:25;;;;;;;0.60;0.10;;;;;;;;;;4362157;33;20429;-90
2022/02/06 01:28:01;;;;;;;0.17;0.10;;;;;;;;;;4362680;33;20032;-90
2022/02/06 01:30:43;;;;;;;0.10;0.10;;;;;;;;;;4347432;33;20054;-90
2022/02/06 01:33:17;;;;;;;0.10;0.10;;;;;;;;;;4347706;33;20086;-90
2022/02/06 01:35:55;;;;;;;0.10;0.10;;;;;;;;;;4347153;33;20060;-91
2022/02/06 01:38:34;;;;;;;0.20;0.20;;;;;;;;;;4361004;33;20067;-91
2022/02/06 01:41:17;;;;;;;0.03;0.03;;;;;;;;;;4348034;33;20091;-91
2022/02/06 01:43:59;;;;;;;0.10;0.10;;;;;;;;;;4359894;33;20115;-92
2022/02/06 02:08:43;;;;;;;0.77;0.30;;;;;;;;;;4349832;33;20040;-89
2022/02/06 02:22:34;;;;;;;1.12;0.30;;;;;;;;;;4363773;32;20110;-91
2022/02/06 02:47:13;;;;;;;0.32;0.20;;;;;;;;;;4347790;33;20047;-89
2022/02/06 02:49:51;;;;;;;0.60;0.20;;;;;;;;;;4346430;33;20052;-90
2022/02/06 02:52:51;;;;;;;0.60;0.25;;;;;;;;;;4335044;33;20387;-91
2022/02/06 02:55:28;;;;;;;1.05;0.30;;;;;;;;;;4334542;33;20119;-91
2022/02/06 02:58:16;;;;;;;1.80;0.28;;;;;;;;;;4347650;33;20061;-90
2022/02/06 03:03:31;;;;;;;0.52;0.20;;;;;;;;;;4323044;33;20443;-91
2022/02/06 03:06:02;;;;;;;2.62;0.30;;;;;;;;;;4347212;33;20048;-90
2022/02/06 03:08:32;;;;;;;0.40;0.30;;;;;;;;;;4334382;33;20044;-90
2022/02/06 03:11:06;;;;;;;0.52;0.20;;;;;;;;;;4349671;33;20044;-90
2022/02/06 03:13:41;;;;;;;0.50;0.20;;;;;;;;;;4346860;33;20121;-90
2022/02/06 03:18:51;;;;;;;1.62;0.40;;;;;;;;;;4334193;33;20040;-90
2022/02/06 03:21:24;;;;;;;0.75;0.30;;;;;;;;;;4333743;33;20047;-90
2022/02/06 03:23:56;;;;;;;0.77;0.30;;;;;;;;;;4334316;33;20041;-90
2022/02/06 03:26:26;;;;;;;0.20;0.20;;;;;;;;;;4348083;33;20079;-90
2022/02/06 03:28:56;;;;;;;0.50;0.30;;;;;;;;;;4345846;33;20131;-90
2022/02/06 03:31:26;;;;;;;0.98;0.40;;;;;;;;;;4335015;33;20084;-90
2022/02/06 03:33:54;;;;;;;0.37;0.30;;;;;;;;;;4333764;33;20032;-90
2022/02/06 03:36:23;;;;;;;0.55;0.30;;;;;;;;;;4347929;33;20059;-90
2022/02/06 03:38:53;;;;;;;0.75;0.20;;;;;;;;;;4348858;33;20048;-90
2022/02/06 03:41:23;;;;;;;0.47;0.30;;;;;;;;;;4347463;33;20090;-89
2022/02/06 03:51:42;;;;;;;0.73;0.20;;;;;;;;;;4329673;33;20089;-90
2022/02/06 03:54:11;;;;;;;0.37;0.20;;;;;;;;;;4347164;33;20059;-89
2022/02/06 03:56:41;;;;;;;1.50;0.30;;;;;;;;;;4348799;33;20058;-90
2022/02/06 03:59:10;;;;;;;1.70;0.40;;;;;;;;;;4360798;33;20032;-90
2022/02/06 04:01:38;;;;;;;1.12;0.30;;;;;;;;;;4348687;33;20119;-90
2022/02/06 04:04:08;;;;;;;1.70;0.30;;;;;;;;;;4361214;32;20085;-90
2022/02/06 04:06:38;;;;;;;1.87;0.30;;;;;;;;;;4347796;33;20095;-90
2022/02/06 04:09:13;;;;;;;0.60;0.22;;;;;;;;;;4360633;33;20062;-90
2022/02/06 04:11:49;;;;;;;1.48;0.30;;;;;;;;;;4349086;33;20036;-90
2022/02/06 04:14:30;;;;;;;1.12;0.30;;;;;;;;;;4348781;33;20054;-90
2022/02/06 04:17:08;;;;;;;0.62;0.20;;;;;;;;;;4336139;33;20051;-90
2022/02/06 04:19:37;;;;;;;1.12;0.30;;;;;;;;;;4335909;33;20051;-90
2022/02/06 04:22:06;;;;;;;1.27;0.28;;;;;;;;;;4360490;33;20187;-90
2022/02/06 04:24:42;;;;;;;1.33;0.30;;;;;;;;;;4361169;32;20047;-90
2022/02/06 04:27:12;;;;;;;1.50;0.35;;;;;;;;;;4361909;33;20040;-90
2022/02/06 04:29:40;;;;;;;1.05;0.40;;;;;;;;;;4349405;32;20044;-89
2022/02/06 04:32:09;;;;;;;0.32;0.20;;;;;;;;;;4348104;33;20392;-89
2022/02/06 04:34:38;;;;;;;0.35;0.22;;;;;;;;;;4361320;32;20067;-89
2022/02/06 04:37:17;;;;;;;1.23;0.25;;;;;;;;;;4360682;33;20113;-90
2022/02/06 04:45:44;;;;;;;0.88;0.35;;;;;;;;;;4323249;33;20368;-90
2022/02/06 04:54:33;;;;;;;1.05;0.30;;;;;;;;;;4362426;33;20053;-90
2022/02/06 05:24:11;;;;;;;1.42;0.30;;;;;;;;;;4364839;33;20096;-89
2022/02/06 05:31:55;;;;;;;1.00;0.20;;;;;;;;;;4360778;33;20028;-90
2022/02/06 05:34:24;;;;;;;0.25;0.20;;;;;;;;;;4334846;33;20039;-90
2022/02/06 05:36:55;;;;;;;1.25;0.40;;;;;;;;;;4361162;32;20036;-90
2022/02/06 05:39:25;;;;;;;1.65;0.22;;;;;;;;;;4339005;33;20078;-90
2022/02/06 05:41:54;;;;;;;0.68;0.22;;;;;;;;;;4363618;32;20097;-90
2022/02/06 05:44:23;;;;;;;2.12;0.30;;;;;;;;;;4349954;33;20054;-90
2022/02/06 05:46:53;;;;;;;0.77;0.30;;;;;;;;;;4352717;32;20047;-90
2022/02/06 05:49:21;;;;;;;0.55;0.30;;;;;;;;;;4350230;33;20094;-90
2022/02/06 05:51:50;;;;;;;0.20;0.20;;;;;;;;;;4350349;33;20055;-90
2022/02/06 05:54:19;;;;;;;0.90;0.20;;;;;;;;;;4325921;33;20048;-90
2022/02/06 05:56:48;;;;;;;0.30;0.20;;;;;;;;;;4363441;33;20040;-91
2022/02/06 05:59:17;;;;;;;0.65;0.20;;;;;;;;;;4350064;33;20137;-90
2022/02/06 06:01:46;;;;;;;0.50;0.20;;;;;;;;;;4350001;33;20111;-90
2022/02/06 06:04:15;;;;;;;0.93;0.20;;;;;;;;;;4363024;33;20036;-90
2022/02/06 06:06:44;;;;;;;1.45;0.30;;;;;;;;;;4337853;33;20032;-90
2022/02/06 06:09:12;;;;;;;0.40;0.20;;;;;;;;;;4338429;32;20066;-90
2022/02/06 06:11:42;;;;;;;0.50;0.30;;;;;;;;;;4349569;33;20031;-91
2022/02/06 06:14:11;;;;;;;0.82;0.20;;;;;;;;;;4364362;32;20032;-90
2022/02/06 06:16:39;;;;;;;1.48;0.20;;;;;;;;;;4337782;33;20036;-90
2022/02/06 06:19:10;;;;;;;0.77;0.30;;;;;;;;;;4349076;33;20085;-91
2022/02/06 06:21:43;;;;;;;1.40;0.22;;;;;;;;;;4362802;33;20032;-90
2022/02/06 06:24:17;;;;;;;0.77;0.27;;;;;;;;;;4347158;32;20031;-90
2022/02/06 06:26:45;;;;;;;0.30;0.20;;;;;;;;;;4338959;32;20043;-90
2022/02/06 06:29:15;;;;;;;1.08;0.30;;;;;;;;;;4350595;33;20053;-90
2022/02/06 06:31:44;;;;;;;0.20;0.20;;;;;;;;;;4337154;33;20032;-91
2022/02/06 06:34:12;;;;;;;0.20;0.20;;;;;;;;;;4336888;33;20028;-91
2022/02/06 06:36:47;;;;;;;0.90;0.30;;;;;;;;;;4347034;32;20063;-91
2022/02/06 06:39:22;;;;;;;0.25;0.22;;;;;;;;;;4349623;33;20040;-91
2022/02/06 06:42:03;;;;;;;1.05;0.20;;;;;;;;;;4351025;32;20062;-90
2022/02/06 06:44:32;;;;;;;0.25;0.25;;;;;;;;;;4334816;33;20356;-91
2022/02/06 06:47:03;;;;;;;0.55;0.30;;;;;;;;;;4349393;33;20036;-91
2022/02/06 06:49:31;;;;;;;0.22;0.20;;;;;;;;;;4359517;32;20048;-91
2022/02/06 06:52:02;;;;;;;1.27;0.30;;;;;;;;;;4350126;33;20445;-91
2022/02/06 06:54:39;;;;;;;0.30;0.20;;;;;;;;;;4364607;32;20055;-91
2022/02/06 06:57:21;;;;;;;0.43;0.20;;;;;;;;;;4339084;33;20123;-91
2022/02/06 07:04:57;;;;;;;0.32;0.30;;;;;;;;;;4349667;33;20035;-91
2022/02/06 07:07:27;;;;;;;0.98;0.28;;;;;;;;;;4350140;33;20504;-91
2022/02/06 07:09:56;;;;;;;0.65;0.30;;;;;;;;;;4350439;33;20167;-92
2022/02/06 07:12:24;;;;;;;2.78;0.60;;;;;;;;;;4338416;33;20486;-91
2022/02/06 07:14:54;;;;;;;1.35;0.40;;;;;;;;;;4350372;33;20446;-91
2022/02/06 07:17:23;;;;;;;4.03;0.50;;;;;;;;;;4337623;33;20044;-92
2022/02/06 07:19:51;;;;;;;3.12;0.52;;;;;;;;;;4337816;33;20359;-91
2022/02/06 07:22:21;;;;;;;4.70;0.60;;;;;;;;;;4337687;33;20066;-91
2022/02/06 07:24:53;;;;;;;1.45;0.70;;;;;;;;;;4363142;33;20033;-91
2022/02/06 07:27:26;;;;;;;4.50;0.80;;;;;;;;;;4338511;33;20040;-90
2022/02/06 07:29:58;;;;;;;4.85;0.93;;;;;;;;;;4349242;33;20391;-91
2022/02/06 07:32:30;;;;;;;5.68;0.80;;;;;;;;;;4362434;33;20058;-91
2022/02/06 07:34:59;;;;;;;2.53;0.68;;;;;;;;;;4349055;33;20040;-91
2022/02/06 07:37:29;;;;;;;6.80;0.90;;;;;;;;;;4349200;33;20063;-91
2022/02/06 07:39:58;;;;;;;3.78;1.15;;;;;;;;;;4349484;33;20054;-91
2022/02/06 07:42:27;;;;;;;3.60;1.10;;;;;;;;;;4336048;32;20103;-91
2022/02/06 07:44:57;;;;;;;3.50;0.90;;;;;;;;;;4350159;33;20372;-91
2022/02/06 07:47:26;;;;;;;4.68;0.90;;;;;;;;;;4362993;32;20020;-91
2022/02/06 07:49:57;;;;;;;7.70;1.17;;;;;;;;;;4363257;32;20048;-91
2022/02/06 07:52:27;;;;;;;4.40;1.05;;;;;;;;;;4349091;33;20096;-91
2022/02/06 07:54:56;;;;;;;4.95;1.05;;;;;;;;;;4361663;32;20066;-91
2022/02/06 07:57:25;;;;;;;2.72;1.00;;;;;;;;;;4361507;33;20040;-91
2022/02/06 07:59:55;;;;;;;4.50;1.08;;;;;;;;;;4360975;32;20065;-91
2022/02/06 08:02:23;;;;;;;5.65;1.23;;;;;;;;;;4348522;33;20051;-91
2022/02/06 08:04:52;;;;;;;3.17;0.95;;;;;;;;;;4348606;33;20109;-91
2022/02/06 08:07:21;;;;;;;4.43;1.17;;;;;;;;;;4348593;33;20035;-91
2022/02/06 08:09:54;;;;;;;5.50;1.35;;;;;;;;;;4361335;32;20348;-91
2022/02/06 08:12:32;;;;;;;2.97;1.20;;;;;;;;;;4361169;32;20031;-90
2022/02/06 08:15:04;;;;;;;3.75;1.17;;;;;;;;;;4362434;32;20044;-90
2022/02/06 08:17:36;;;;;;;3.00;0.88;;;;;;;;;;4350612;32;20060;-91
2022/02/06 08:20:13;;;;;;;3.60;1.12;;;;;;;;;;4324799;33;20417;-91
2022/02/06 08:22:43;;;;;;;3.40;0.93;;;;;;;;;;4348500;33;20053;-91
2022/02/06 08:25:13;;;;;;;7.55;1.30;;;;;;;;;;4361584;32;20391;-90
2022/02/06 08:27:42;;;;;;;4.70;1.10;;;;;;;;;;4348498;33;20101;-91
2022/02/06 08:30:12;;;;;;;5.53;1.10;;;;;;;;;;4361336;32;20057;-91
2022/02/06 08:32:43;;;;;;;3.83;1.15;;;;;;;;;;4336335;33;20088;-90
2022/02/06 08:35:12;;;;;;;4.62;1.12;;;;;;;;;;4348151;33;20044;-91
2022/02/06 08:37:42;;;;;;;5.30;1.00;;;;;;;;;;4337280;33;20119;-90
2022/02/06 08:40:16;;;;;;;6.40;1.00;;;;;;;;;;4361153;32;20028;-90
2022/02/06 08:42:45;;;;;;;;;;;;;;;;;;4346642;33;20210;-90
2022/02/06 08:45:15;;;;;;;8.35;1.30;;;;;;;;;;4348738;32;19981;-90
2022/02/06 08:47:46;;;;;;;7.62;1.40;;;;;;;;;;4357878;32;20051;-90
2022/02/06 08:50:15;;;;;;;6.87;1.17;;;;;;;;;;4359771;33;20036;-90
2022/02/06 08:52:45;;;;;;;5.55;1.20;;;;;;;;;;4347032;33;20061;-90
2022/02/06 08:55:14;;;;;;;6.00;1.35;;;;;;;;;;4359259;33;20031;-90
2022/02/06 08:57:47;;;;;;;7.78;1.40;;;;;;;;;;4360541;33;20512;-90
2022/02/06 09:00:17;;;;;;;9.65;1.62;;;;;;;;;;4359832;33;20036;-91
2022/02/06 09:02:47;;;;;;;4.55;1.40;;;;;;;;;;4346945;33;20048;-90
2022/02/06 09:05:16;;;;;;;5.07;1.00;;;;;;;;;;4360875;33;20024;-91
2022/02/06 09:07:45;;;;;;;5.25;1.45;;;;;;;;;;4347372;33;20097;-90
2022/02/06 09:10:15;;;;;;;5.75;1.27;;;;;;;;;;4360305;32;20355;-90
2022/02/06 09:12:53;;;;;;;4.72;1.23;;;;;;;;;;4363765;32;20031;-90
2022/02/06 09:15:23;;;;;;;4.37;1.00;;;;;;;;;;4362548;32;20048;-91
2022/02/06 09:17:52;;;;;;;5.62;1.40;;;;;;;;;;4351177;33;20078;-90
2022/02/06 09:20:21;;;;;;;5.30;1.10;;;;;;;;;;4363153;32;20051;-90
2022/02/06 09:22:52;;;;;;;6.45;1.40;;;;;;;;;;4350137;33;20048;-90
2022/02/06 09:25:21;;;;;;;8.95;1.30;;;;;;;;;;4350318;33;20480;-90
2022/02/06 09:27:51;;;;;;;6.07;1.35;;;;;;;;;;4362275;32;20040;-91
2022/02/06 09:30:25;;;;;;;4.75;1.15;;;;;;;;;;4350005;33;20062;-89
2022/02/06 09:35:25;;;;;;;8.40;1.40;;;;;;;;;;4334856;33;20051;-90
2022/02/06 09:37:59;;;;;;;7.12;1.20;;;;;;;;;;4340423;33;20118;-91
2022/02/06 09:40:30;;;;;;;8.05;1.42;;;;;;;;;;4347455;33;20482;-90
2022/02/06 09:43:00;;;;;;;7.55;1.35;;;;;;;;;;4348819;33;20048;-90
2022/02/06 09:45:33;;;;;;;6.57;1.20;;;;;;;;;;4347938;33;20082;-90
2022/02/06 09:48:04;;;;;;;5.45;1.37;;;;;;;;;;4350784;33;20396;-89
2022/02/06 09:50:33;;;;;;;4.97;1.12;;;;;;;;;;4358807;32;20091;-90
2022/02/06 09:53:04;;;;;;;3.60;1.10;;;;;;;;;;4365299;32;20048;-90
2022/02/06 09:55:32;;;;;;;6.37;1.08;;;;;;;;;;4364354;32;20023;-89
2022/02/06 10:00:50;;;;;;;3.97;1.08;;;;;;;;;;4349387;33;20047;-91
2022/02/06 10:03:23;;;;;;;5.05;1.05;;;;;;;;;;4349559;33;20062;-89
2022/02/06 10:05:52;;;;;;;4.18;1.20;;;;;;;;;;4362887;33;20028;-91
2022/02/06 10:08:31;;;;;;;4.47;1.00;;;;;;;;;;4350078;33;20039;-90
2022/02/06 10:11:03;;;;;;;4.70;0.82;;;;;;;;;;4349736;33;20044;-89
2022/02/06 10:13:36;;;;;;;3.67;1.15;;;;;;;;;;4363095;32;20082;-89
2022/02/06 10:16:05;;;;;;;6.05;1.23;;;;;;;;;;4365215;32;20399;-89
2022/02/06 10:18:35;;;;;;;3.28;1.12;;;;;;;;;;4362941;32;20341;-88
2022/02/06 10:21:07;;;;;;;3.92;1.17;;;;;;;;;;4363294;33;20032;-90
2022/02/06 10:23:43;;;;;;;2.75;1.10;;;;;;;;;;4362929;32;20045;-89
2022/02/06 10:26:28;;;;;;;2.85;0.93;;;;;;;;;;4363207;33;20044;-89
2022/02/06 10:31:51;;;;;;;5.80;1.10;;;;;;;;;;4364830;32;20051;-88
2022/02/06 10:34:25;;;;;;;2.75;1.00;;;;;;;;;;4362862;33;20062;-88
2022/02/06 10:37:12;;;;;;;6.68;1.48;;;;;;;;;;4349560;33;20099;-88
2022/02/06 10:39:53;;;;;;;5.70;1.35;;;;;;;;;;4363029;32;20048;-89
2022/02/06 10:42:27;;;;;;;4.40;1.23;;;;;;;;;;4362386;32;20408;-89
2022/02/06 10:45:12;;;;;;;6.53;1.35;;;;;;;;;;4363845;32;20099;-89
2022/02/06 10:47:40;;;;;;;4.35;1.20;;;;;;;;;;4363006;33;20446;-90
2022/02/06 10:50:17;;;;;;;8.70;1.25;;;;;;;;;;4364715;32;20036;-89
2022/02/06 10:52:46;;;;;;;6.60;1.25;;;;;;;;;;4350757;32;20363;-90
2022/02/06 10:55:18;;;;;;;7.45;1.33;;;;;;;;;;4351396;32;20048;-90
2022/02/06 10:57:57;;;;;;;5.68;1.30;;;;;;;;;;4349330;33;20028;-89
2022/02/06 11:00:27;;;;;;;9.30;1.40;;;;;;;;;;4350587;32;20044;-89
2022/02/06 11:03:03;;;;;;;6.65;1.37;;;;;;;;;;4362311;32;20028;-89
2022/02/06 11:05:47;;;;;;;3.33;1.02;;;;;;;;;;4361475;32;20055;-89
2022/02/06 11:08:28;;;;;;;4.82;1.08;;;;;;;;;;4363900;32;20046;-89
2022/02/06 11:11:00;;;;;;;4.53;1.20;;;;;;;;;;4349219;33;20037;-88
2022/02/06 11:13:29;;;;;;;5.20;1.30;;;;;;;;;;4361334;32;20079;-90
2022/02/06 11:15:59;;;;;;;4.57;1.40;;;;;;;;;;4362682;32;20048;-90
2022/02/06 11:18:34;;;;;;;6.22;1.15;;;;;;;;;;4338624;33;20106;-90
2022/02/06 11:21:07;;;;;;;6.28;1.33;;;;;;;;;;4338636;33;20073;-90
2022/02/06 11:23:40;;;;;;;7.78;1.50;;;;;;;;;;4362937;32;20081;-90
2022/02/06 11:26:11;;;;;;;5.97;1.35;;;;;;;;;;4348424;33;20121;-89
2022/02/06 11:28:40;;;;;;;5.12;1.37;;;;;;;;;;4349976;33;20097;-89
2022/02/06 11:31:09;;;;;;;4.32;1.20;;;;;;;;;;4348342;33;20086;-89
2022/02/06 11:33:37;;;;;;;6.97;1.70;;;;;;;;;;4362490;32;20066;-89
2022/02/06 11:36:19;;;;;;;7.95;1.20;;;;;;;;;;4358917;32;20019;-90
2022/02/06 11:44:50;;;;;;;5.68;1.50;;;;;;;;;;4350081;32;20411;-89
2022/02/06 11:47:20;;;;;;;7.12;1.27;;;;;;;;;;4352029;32;20087;-89
2022/02/06 11:49:50;;;;;;;3.58;1.20;;;;;;;;;;4352020;32;20063;-89
2022/02/06 11:54:31;;;;;;;6.20;1.40;;;;;;;;;;4455567;31;20103;-56
2022/02/06 11:57:27;;;;;;;5.95;1.15;;;;;;;;;;4448863;32;20117;-56
2022/02/06 12:00:07;;;;;;;5.60;1.40;;;;;;;;;;4444698;32;20176;-56
2022/02/06 12:02:48;;;;;;;8.25;1.55;;;;;;;;;;4446682;32;20089;-56
2022/02/06 12:05:17;;;;;;;6.25;1.30;;;;;;;;;;4446820;32;20050;-56
2022/02/06 12:08:00;;;;;;;8.07;1.33;;;;;;;;;;4443018;32;20151;-53
2022/02/06 12:10:35;;;;;;;8.88;1.40;;;;;;;;;;4445362;32;20561;-56
2022/02/06 12:13:20;;;;;;;8.02;1.37;;;;;;;;;;4440036;32;20102;-55
2022/02/06 12:15:50;;;;;;;5.70;1.40;;;;;;;;;;4438211;32;20430;-56
2022/02/06 12:18:25;;;;;;;5.15;1.15;;;;;;;;;;4444305;32;20421;-55
2022/02/06 12:20:58;;;;;;;6.22;1.67;;;;;;;;;;4442627;32;20610;-56
2022/02/06 12:23:43;;;;;;;4.80;1.30;;;;;;;;;;4443243;32;20045;-53
2022/02/06 12:26:28;;;;;;;5.50;1.60;;;;;;;;;;4446094;32;20402;-56
2022/02/06 12:29:19;;;;;;;6.40;1.25;;;;;;;;;;4438838;32;20061;-55
2022/02/06 12:31:53;;;;;;;6.35;1.30;;;;;;;;;;4438284;32;20137;-55
2022/02/06 12:37:29;;;;;;;6.57;1.58;;;;;;;;;;4442834;32;20053;-63
2022/02/06 12:39:59;;;;;;;21.35;2.87;;;;;;;;;;4444499;32;20541;-63
2022/02/06 12:42:29;;;;;;;24.02;3.72;;;;;;;;;;4445120;32;20079;-63
2022/02/06 12:44:58;;;;;;;26.42;4.30;;;;;;;;;;4444969;32;20428;-63
2022/02/06 12:47:27;;;;;;;36.75;5.37;;;;;;;;;;4446286;32;20029;-63
2022/02/06 12:49:56;;;;;;;34.03;6.32;;;;;;;;;;4445054;32;20084;-62
2022/02/06 12:52:25;;;;;;;41.47;6.12;;;;;;;;;;4446699;32;20033;-63
2022/02/06 12:54:53;;;;;;;45.38;6.28;;;;;;;;;;4461674;32;20093;-63
2022/02/06 12:57:22;;;;;;;36.55;6.40;;;;;;;;;;4446475;32;20033;-63
2022/02/06 12:59:50;;;;;;;42.20;6.32;;;;;;;;;;4445226;32;20472;-63
2022/02/06 13:02:23;;;;;;;27.92;5.47;;;;;;;;;;4447007;32;20049;-63
2022/02/06 13:05:02;;;;;;;30.83;5.45;;;;;;;;;;4441101;32;20423;-63
2022/02/06 13:07:30;;;;;;;38.75;6.97;;;;;;;;;;4435732;32;20133;-63
2022/02/06 13:10:06;;;;;;;43.25;6.62;;;;;;;;;;4432387;32;20370;-63
2022/02/06 13:12:43;;;;;;;40.90;6.62;;;;;;;;;;4437084;32;20448;-63
2022/02/06 13:16:00;;;;;;;43.15;6.20;;;;;;;;;;4430219;32;22835;-62
2022/02/06 13:18:18;;;;;;;46.60;7.43;;;;;;;;;;4429188;32;20063;-63
2022/02/06 13:21:06;;;;;;;45.50;7.43;;;;;;;;;;4429882;32;20073;-62
2022/02/06 13:24:05;;;;;;;42.65;7.22;;;;;;;;;;4433725;32;20137;-63
2022/02/06 13:29:17;;;;;;;38.55;7.05;;;;;;;;;;4436302;32;20058;-63
2022/02/06 13:34:29;;;;;;;34.90;6.93;;;;;;;;;;4435509;32;20046;-62
2022/02/06 13:37:10;;;;;;;45.92;7.53;;;;;;;;;;4436886;32;20068;-61
2022/02/06 13:39:48;;;;;;;42.42;7.57;;;;;;;;;;4435049;32;20490;-61
2022/02/06 13:42:18;;;;;;;39.20;7.30;;;;;;;;;;4437624;32;20057;-62
2022/02/06 13:45:01;;;;;;;36.90;7.32;;;;;;;;;;4436209;32;20049;-63
2022/02/06 13:47:30;;;;;;;39.72;6.15;;;;;;;;;;4431263;32;20101;-62
2022/02/06 13:50:01;;;;;;;42.97;6.62;;;;;;;;;;4430137;32;20073;-62
2022/02/06 13:52:29;;;;;;;38.30;7.65;;;;;;;;;;4430393;32;20067;-62
2022/02/06 13:55:04;;;;;;;41.65;7.20;;;;;;;;;;4432740;32;20078;-62
2022/02/06 13:57:32;;;;;;;;;;;;;;;;;;4436689;32;20109;-62
2022/02/06 14:00:08;;;;;;;38.97;6.43;;;;;;;;;;4428189;32;20000;-62
2022/02/06 14:02:50;;;;;;;50.30;7.47;;;;;;;;;;4434826;32;20082;-63
2022/02/06 14:05:21;;;;;;;43.53;6.85;;;;;;;;;;4424847;32;20117;-63
2022/02/06 14:08:03;;;;;;;44.33;6.62;;;;;;;;;;4432855;32;20177;-62
2022/02/06 14:10:44;;;;;;;36.08;7.45;;;;;;;;;;4435297;32;20070;-62
2022/02/06 14:13:22;;;;;;;37.05;7.20;;;;;;;;;;4431756;32;20046;-63
2022/02/06 14:16:14;;;;;;;50.72;7.12;;;;;;;;;;4433494;32;20422;-64
2022/02/06 14:18:49;;;;;;;44.53;6.72;;;;;;;;;;4435379;32;20113;-53
2022/02/06 14:21:18;;;;;;;46.80;7.18;;;;;;;;;;4433234;32;20041;-56
2022/02/06 14:24:08;;;;;;;46.72;6.87;;;;;;;;;;4429992;32;20050;-55
2022/02/06 14:26:36;;;;;;;50.30;6.87;;;;;;;;;;4429593;32;20085;-56
2022/02/06 14:29:15;;;;;;;36.20;6.18;;;;;;;;;;4433385;32;20401;-56
2022/02/06 14:31:44;;;;;;;40.70;5.78;;;;;;;;;;4432282;32;20042;-56
2022/02/06 14:34:17;;;;;;;36.35;5.30;;;;;;;;;;4433685;32;20095;-56
2022/02/06 14:37:23;;;;;;;23.02;4.97;;;;;;;;;;4434177;32;20096;-56
2022/02/06 14:42:57;;;;;;;33.15;4.80;;;;;;;;;;4432900;32;20443;-55
2022/02/06 14:45:25;;;;;;;25.12;4.53;;;;;;;;;;4432449;32;20097;-56
2022/02/06 14:47:54;;;;;;;26.92;4.30;;;;;;;;;;4435330;32;20425;-57
2022/02/06 14:50:27;;;;;;;26.37;4.05;;;;;;;;;;4432363;32;20081;-57
2022/02/06 14:52:56;;;;;;;22.27;4.10;;;;;;;;;;4434134;32;20681;-54
2022/02/06 14:55:24;;;;;;;18.10;4.07;;;;;;;;;;4433778;32;20389;-54
2022/02/06 14:57:57;;;;;;;17.23;3.60;;;;;;;;;;4432461;32;20072;-57
2022/02/06 15:00:25;;;;;;;16.02;3.37;;;;;;;;;;4431484;32;20132;-55
2022/02/06 15:02:53;;;;;;;13.73;2.72;;;;;;;;;;4434069;32;20164;-57
2022/02/06 15:05:22;;;;;;;19.27;3.28;;;;;;;;;;4432288;32;20050;-53
2022/02/06 15:07:50;;;;;;;12.07;2.90;;;;;;;;;;4433186;32;20377;-56
2022/02/06 15:10:19;;;;;;;16.37;2.78;;;;;;;;;;4434477;32;20062;-54
2022/02/06 15:12:47;;;;;;;14.80;3.37;;;;;;;;;;4431380;32;20111;-56
2022/02/06 15:15:17;;;;;;;15.68;2.67;;;;;;;;;;4435894;32;20100;-56
2022/02/06 15:17:49;;;;;;;15.02;3.00;;;;;;;;;;4436266;32;20101;-56
2022/02/06 15:20:17;;;;;;;12.00;2.20;;;;;;;;;;4432423;32;20073;-56
2022/02/06 15:22:46;;;;;;;11.02;2.20;;;;;;;;;;4434263;32;20081;-56
2022/02/06 15:25:15;;;;;;;7.57;2.00;;;;;;;;;;4430623;32;20485;-56
2022/02/06 15:27:44;;;;;;;14.68;2.70;;;;;;;;;;4433485;32;20046;-57
2022/02/06 15:30:12;;;;;;;10.68;2.10;;;;;;;;;;4428577;32;20084;-57
2022/02/06 15:32:40;;;;;;;10.48;2.40;;;;;;;;;;4434312;32;20057;-55
2022/02/06 15:35:09;;;;;;;7.62;2.05;;;;;;;;;;4430980;32;20064;-56
2022/02/06 15:37:37;;;;;;;9.27;2.05;;;;;;;;;;4428413;32;20109;-56
2022/02/06 15:40:07;;;;;;;6.65;1.90;;;;;;;;;;4429880;32;20049;-56
2022/02/06 15:42:36;;;;;;;8.55;1.75;;;;;;;;;;4432683;32;20072;-55
2022/02/06 15:45:04;;;;;;;9.13;1.80;;;;;;;;;;4429363;32;20080;-54
2022/02/06 15:47:34;;;;;;;9.30;1.90;;;;;;;;;;4432371;32;20074;-56
2022/02/06 15:50:06;;;;;;;6.55;1.33;;;;;;;;;;4432041;32;20112;-56
2022/02/06 15:52:34;;;;;;;5.80;1.45;;;;;;;;;;4431707;32;20069;-56
2022/02/06 15:55:03;;;;;;;6.25;1.80;;;;;;;;;;4431293;32;20046;-56
2022/02/06 15:57:32;;;;;;;8.35;1.87;;;;;;;;;;4431589;32;20070;-56
2022/02/06 16:00:00;;;;;;;7.60;1.65;;;;;;;;;;4429372;32;20050;-55
2022/02/06 16:02:29;;;;;;;7.47;1.60;;;;;;;;;;4433027;32;20073;-56
2022/02/06 16:04:57;;;;;;;5.65;1.20;;;;;;;;;;4429433;32;20113;-56
2022/02/06 16:07:27;;;;;;;8.00;1.35;;;;;;;;;;4430380;32;20478;-54
2022/02/06 16:09:55;;;;;;;4.32;1.30;;;;;;;;;;4427534;32;20453;-56
2022/02/06 16:12:23;;;;;;;6.07;1.42;;;;;;;;;;4431302;32;20531;-55
2022/02/06 16:14:52;;;;;;;5.55;1.27;;;;;;;;;;4426143;32;20109;-55
2022/02/06 16:17:20;;;;;;;6.05;1.20;;;;;;;;;;4431978;32;20088;-56
2022/02/06 16:19:48;;;;;;;3.85;1.23;;;;;;;;;;4432268;32;20053;-56
2022/02/06 16:22:17;;;;;;;5.37;1.12;;;;;;;;;;4432879;32;20135;-56
2022/02/06 16:24:45;;;;;;;5.60;1.35;;;;;;;;;;4430314;32;20093;-56
2022/02/06 16:27:15;;;;;;;4.75;1.20;;;;;;;;;;4428036;32;20427;-55
2022/02/06 16:29:43;;;;;;;5.12;0.80;;;;;;;;;;4428571;32;20069;-54
2022/02/06 16:32:14;;;;;;;5.70;1.30;;;;;;;;;;4431416;32;20072;-55
2022/02/06 16:34:44;;;;;;;7.03;1.40;;;;;;;;;;4428480;32;20093;-55
2022/02/06 16:37:12;;;;;;;4.07;0.88;;;;;;;;;;4433382;32;20034;-52
2022/02/06 16:39:42;;;;;;;3.00;1.00;;;;;;;;;;4433177;32;20426;-52
2022/02/06 16:42:11;;;;;;;4.82;0.95;;;;;;;;;;4435480;32;20053;-56
2022/02/06 16:44:40;;;;;;;4.28;1.08;;;;;;;;;;4437989;32;20510;-51
2022/02/06 16:47:09;;;;;;;4.20;0.90;;;;;;;;;;4435569;32;20033;-54
2022/02/06 16:49:39;;;;;;;3.90;1.10;;;;;;;;;;4432444;32;20062;-53
2022/02/06 16:52:08;;;;;;;3.75;0.90;;;;;;;;;;4433864;32;20106;-54
2022/02/06 16:54:37;;;;;;;2.97;0.80;;;;;;;;;;4435108;32;20050;-56
2022/02/06 16:57:07;;;;;;;3.53;1.00;;;;;;;;;;4437578;32;20445;-52
2022/02/06 16:59:36;;;;;;;3.87;0.90;;;;;;;;;;4436203;32;20559;-56
2022/02/06 17:02:05;;;;;;;4.47;0.82;;;;;;;;;;4436606;32;20090;-54
2022/02/06 17:04:33;;;;;;;4.00;1.00;;;;;;;;;;4436623;32;20077;-55
2022/02/06 17:07:01;;;;;;;2.87;0.80;;;;;;;;;;4435386;32;20492;-54
2022/02/06 17:09:30;;;;;;;5.30;0.85;;;;;;;;;;4434027;32;20129;-56
2022/02/06 17:11:58;;;;;;;3.10;0.98;;;;;;;;;;4429377;32;20060;-55
2022/02/06 17:14:26;;;;;;;1.52;0.50;;;;;;;;;;4435876;32;20100;-56
2022/02/06 17:16:55;;;;;;;3.08;0.70;;;;;;;;;;4433225;32;20070;-56
2022/02/06 17:19:26;;;;;;;6.10;0.80;;;;;;;;;;4432591;32;20058;-55
2022/02/06 17:21:55;;;;;;;3.17;1.00;;;;;;;;;;4434011;32;20500;-55
2022/02/06 17:24:27;;;;;;;2.42;0.80;;;;;;;;;;4434368;32;20395;-56
2022/02/06 17:26:55;;;;;;;1.65;0.65;;;;;;;;;;4433297;32;20061;-54
2022/02/06 17:29:24;;;;;;;5.72;0.80;;;;;;;;;;4430439;32;20623;-55
2022/02/06 17:31:52;;;;;;;2.78;0.70;;;;;;;;;;4426026;32;20089;-56
2022/02/06 17:34:21;;;;;;;1.83;0.70;;;;;;;;;;4433204;32;20045;-54
2022/02/06 17:36:51;;;;;;;2.15;0.80;;;;;;;;;;4432213;32;20078;-56
2022/02/06 17:39:19;;;;;;;4.15;0.65;;;;;;;;;;4424511;32;20392;-55
2022/02/06 17:41:48;;;;;;;2.58;0.70;;;;;;;;;;4433563;32;20111;-54
2022/02/06 17:44:16;;;;;;;3.15;0.80;;;;;;;;;;4435766;32;20076;-54
2022/02/06 17:46:48;;;;;;;4.28;0.50;;;;;;;;;;4435846;32;20092;-52